sensor_id;sensor_type;location;lat;lon;timestamp;P1;durP1;ratioP1;P2;durP2;ratioP2
22160;SDS011;49035;48.812;11.762;2023-06-01T00:00:36;9.47;;;6.17;;
22160;SDS011;49035;48.812;11.762;2023-06-01T00:03:03;10.37;;;6.03;;
22160;SDS011;49035;48.812;11.762;2023-06-01T00:05:29;8.47;;;5.40;;
22160;SDS011;49035;48.812;11.762;2023-06-01T00:07:55;9.60;;;5.23;;
22160;SDS011;49035;48.812;11.762;2023-06-01T00:10:20;7.90;;;5.07;;
22160;SDS011;49035;48.812;11.762;2023-06-01T00:12:46;9.97;;;5.53;;
22160;SDS011;49035;48.812;11.762;2023-06-01T00:15:11;8.07;;;5.50;;
22160;SDS011;49035;48.812;11.762;2023-06-01T00:17:37;8.57;;;5.73;;
22160;SDS011;49035;48.812;11.762;2023-06-01T00:20:03;8.13;;;5.33;;
22160;SDS011;49035;48.812;11.762;2023-06-01T00:22:33;8.97;;;5.67;;
22160;SDS011;49035;48.812;11.762;2023-06-01T00:25:03;9.27;;;5.97;;
22160;SDS011;49035;48.812;11.762;2023-06-01T00:27:32;9.40;;;5.33;;
22160;SDS011;49035;48.812;11.762;2023-06-01T00:29:58;11.07;;;6.00;;
22160;SDS011;49035;48.812;11.762;2023-06-01T00:32:24;7.97;;;5.77;;
22160;SDS011;49035;48.812;11.762;2023-06-01T00:34:49;8.93;;;6.37;;
22160;SDS011;49035;48.812;11.762;2023-06-01T00:37:15;10.40;;;6.27;;
22160;SDS011;49035;48.812;11.762;2023-06-01T00:39:40;9.00;;;5.87;;
22160;SDS011;49035;48.812;11.762;2023-06-01T00:42:06;9.43;;;6.00;;
22160;SDS011;49035;48.812;11.762;2023-06-01T00:44:31;8.37;;;5.80;;
22160;SDS011;49035;48.812;11.762;2023-06-01T00:46:57;11.80;;;6.40;;
22160;SDS011;49035;48.812;11.762;2023-06-01T00:49:24;8.20;;;6.03;;
22160;SDS011;49035;48.812;11.762;2023-06-01T00:51:50;8.87;;;5.67;;
22160;SDS011;49035;48.812;11.762;2023-06-01T00:54:17;11.77;;;6.60;;
22160;SDS011;49035;48.812;11.762;2023-06-01T00:56:43;10.50;;;6.43;;
22160;SDS011;49035;48.812;11.762;2023-06-01T00:59:09;9.90;;;6.00;;
22160;SDS011;49035;48.812;11.762;2023-06-01T01:01:36;8.03;;;6.10;;
22160;SDS011;49035;48.812;11.762;2023-06-01T01:04:02;10.17;;;5.83;;
22160;SDS011;49035;48.812;11.762;2023-06-01T01:06:36;8.40;;;6.00;;
22160;SDS011;49035;48.812;11.762;2023-06-01T01:09:28;10.27;;;6.57;;
22160;SDS011;49035;48.812;11.762;2023-06-01T01:12:19;10.60;;;6.43;;
22160;SDS011;49035;48.812;11.762;2023-06-01T01:17:37;9.53;;;6.47;;
22160;SDS011;49035;48.812;11.762;2023-06-01T01:25:20;8.10;;;6.27;;
22160;SDS011;49035;48.812;11.762;2023-06-01T01:30:54;7.67;;;5.73;;
22160;SDS011;49035;48.812;11.762;2023-06-01T01:33:22;10.63;;;6.23;;
22160;SDS011;49035;48.812;11.762;2023-06-01T01:35:49;10.63;;;6.67;;
22160;SDS011;49035;48.812;11.762;2023-06-01T01:38:15;10.37;;;6.00;;
22160;SDS011;49035;48.812;11.762;2023-06-01T01:40:41;11.30;;;6.77;;
22160;SDS011;49035;48.812;11.762;2023-06-01T01:43:06;12.13;;;6.17;;
22160;SDS011;49035;48.812;11.762;2023-06-01T01:45:32;8.77;;;6.17;;
22160;SDS011;49035;48.812;11.762;2023-06-01T01:47:59;11.43;;;6.67;;
22160;SDS011;49035;48.812;11.762;2023-06-01T01:50:27;15.07;;;7.17;;
22160;SDS011;49035;48.812;11.762;2023-06-01T01:52:59;7.97;;;6.13;;
22160;SDS011;49035;48.812;11.762;2023-06-01T01:55:26;10.27;;;6.83;;
22160;SDS011;49035;48.812;11.762;2023-06-01T01:57:54;10.80;;;6.90;;
22160;SDS011;49035;48.812;11.762;2023-06-01T02:00:21;8.53;;;6.47;;
22160;SDS011;49035;48.812;11.762;2023-06-01T02:02:47;11.40;;;6.77;;
22160;SDS011;49035;48.812;11.762;2023-06-01T02:05:13;9.50;;;7.07;;
22160;SDS011;49035;48.812;11.762;2023-06-01T02:07:39;9.27;;;6.40;;
22160;SDS011;49035;48.812;11.762;2023-06-01T02:10:04;9.77;;;6.93;;
22160;SDS011;49035;48.812;11.762;2023-06-01T02:12:31;9.87;;;6.87;;
22160;SDS011;49035;48.812;11.762;2023-06-01T02:14:56;8.43;;;6.50;;
22160;SDS011;49035;48.812;11.762;2023-06-01T02:17:22;9.90;;;6.67;;
22160;SDS011;49035;48.812;11.762;2023-06-01T02:19:50;10.40;;;7.17;;
22160;SDS011;49035;48.812;11.762;2023-06-01T02:22:16;8.83;;;6.30;;
22160;SDS011;49035;48.812;11.762;2023-06-01T02:24:41;10.80;;;7.20;;
22160;SDS011;49035;48.812;11.762;2023-06-01T02:27:07;12.87;;;7.30;;
22160;SDS011;49035;48.812;11.762;2023-06-01T02:29:32;13.00;;;7.37;;
22160;SDS011;49035;48.812;11.762;2023-06-01T02:31:58;12.77;;;7.27;;
22160;SDS011;49035;48.812;11.762;2023-06-01T02:34:24;9.97;;;6.57;;
22160;SDS011;49035;48.812;11.762;2023-06-01T02:36:50;9.77;;;6.90;;
22160;SDS011;49035;48.812;11.762;2023-06-01T02:39:15;9.40;;;7.23;;
22160;SDS011;49035;48.812;11.762;2023-06-01T02:41:42;10.27;;;7.20;;
22160;SDS011;49035;48.812;11.762;2023-06-01T02:44:07;10.33;;;7.03;;
22160;SDS011;49035;48.812;11.762;2023-06-01T02:46:33;12.43;;;7.90;;
22160;SDS011;49035;48.812;11.762;2023-06-01T02:48:59;12.40;;;8.00;;
22160;SDS011;49035;48.812;11.762;2023-06-01T02:51:24;11.87;;;7.80;;
22160;SDS011;49035;48.812;11.762;2023-06-01T02:53:50;16.03;;;8.17;;
22160;SDS011;49035;48.812;11.762;2023-06-01T02:56:16;13.20;;;7.93;;
22160;SDS011;49035;48.812;11.762;2023-06-01T02:58:42;12.83;;;8.57;;
22160;SDS011;49035;48.812;11.762;2023-06-01T03:01:07;14.27;;;8.03;;
22160;SDS011;49035;48.812;11.762;2023-06-01T03:03:37;12.67;;;8.03;;
22160;SDS011;49035;48.812;11.762;2023-06-01T03:06:03;16.73;;;8.80;;
22160;SDS011;49035;48.812;11.762;2023-06-01T03:08:31;14.73;;;8.33;;
22160;SDS011;49035;48.812;11.762;2023-06-01T03:10:56;12.47;;;8.33;;
22160;SDS011;49035;48.812;11.762;2023-06-01T03:13:22;12.30;;;8.30;;
22160;SDS011;49035;48.812;11.762;2023-06-01T03:15:47;11.80;;;7.57;;
22160;SDS011;49035;48.812;11.762;2023-06-01T03:18:13;13.63;;;8.17;;
22160;SDS011;49035;48.812;11.762;2023-06-01T03:20:39;13.47;;;8.27;;
22160;SDS011;49035;48.812;11.762;2023-06-01T03:23:04;15.27;;;9.23;;
22160;SDS011;49035;48.812;11.762;2023-06-01T03:25:30;14.73;;;9.10;;
22160;SDS011;49035;48.812;11.762;2023-06-01T03:27:55;12.90;;;8.83;;
22160;SDS011;49035;48.812;11.762;2023-06-01T03:30:21;14.50;;;8.43;;
22160;SDS011;49035;48.812;11.762;2023-06-01T03:32:47;15.60;;;8.70;;
22160;SDS011;49035;48.812;11.762;2023-06-01T03:35:13;12.50;;;8.13;;
22160;SDS011;49035;48.812;11.762;2023-06-01T03:37:39;13.70;;;8.87;;
22160;SDS011;49035;48.812;11.762;2023-06-01T03:40:07;12.93;;;8.70;;
22160;SDS011;49035;48.812;11.762;2023-06-01T03:42:43;12.37;;;9.63;;
22160;SDS011;49035;48.812;11.762;2023-06-01T03:45:11;15.07;;;9.57;;
22160;SDS011;49035;48.812;11.762;2023-06-01T03:47:38;12.60;;;9.20;;
22160;SDS011;49035;48.812;11.762;2023-06-01T03:50:04;12.80;;;9.77;;
22160;SDS011;49035;48.812;11.762;2023-06-01T03:52:31;13.47;;;10.17;;
22160;SDS011;49035;48.812;11.762;2023-06-01T03:54:59;14.70;;;9.77;;
22160;SDS011;49035;48.812;11.762;2023-06-01T03:57:27;13.83;;;9.07;;
22160;SDS011;49035;48.812;11.762;2023-06-01T03:59:53;17.27;;;9.57;;
22160;SDS011;49035;48.812;11.762;2023-06-01T04:02:19;18.07;;;10.17;;
22160;SDS011;49035;48.812;11.762;2023-06-01T04:04:45;16.73;;;10.50;;
22160;SDS011;49035;48.812;11.762;2023-06-01T04:07:12;15.23;;;9.67;;
22160;SDS011;49035;48.812;11.762;2023-06-01T04:09:44;17.90;;;9.83;;
22160;SDS011;49035;48.812;11.762;2023-06-01T04:12:11;18.33;;;10.10;;
22160;SDS011;49035;48.812;11.762;2023-06-01T04:14:37;16.93;;;11.23;;
22160;SDS011;49035;48.812;11.762;2023-06-01T04:17:03;14.83;;;11.27;;
22160;SDS011;49035;48.812;11.762;2023-06-01T04:19:29;13.43;;;10.47;;
22160;SDS011;49035;48.812;11.762;2023-06-01T04:21:55;12.53;;;8.33;;
22160;SDS011;49035;48.812;11.762;2023-06-01T04:24:21;10.57;;;6.93;;
22160;SDS011;49035;48.812;11.762;2023-06-01T04:26:47;11.20;;;5.90;;
22160;SDS011;49035;48.812;11.762;2023-06-01T04:29:12;9.57;;;5.45;;
22160;SDS011;49035;48.812;11.762;2023-06-01T04:31:38;9.52;;;4.80;;
22160;SDS011;49035;48.812;11.762;2023-06-01T04:34:04;12.02;;;4.70;;
22160;SDS011;49035;48.812;11.762;2023-06-01T04:36:32;5.63;;;4.28;;
22160;SDS011;49035;48.812;11.762;2023-06-01T04:38:58;10.02;;;4.93;;
22160;SDS011;49035;48.812;11.762;2023-06-01T04:41:24;11.32;;;4.80;;
22160;SDS011;49035;48.812;11.762;2023-06-01T04:43:51;7.55;;;4.00;;
22160;SDS011;49035;48.812;11.762;2023-06-01T04:46:18;7.57;;;4.70;;
22160;SDS011;49035;48.812;11.762;2023-06-01T04:48:45;10.25;;;4.30;;
22160;SDS011;49035;48.812;11.762;2023-06-01T04:51:11;7.32;;;4.53;;
22160;SDS011;49035;48.812;11.762;2023-06-01T04:53:43;8.75;;;4.68;;
22160;SDS011;49035;48.812;11.762;2023-06-01T04:56:08;5.90;;;4.25;;
22160;SDS011;49035;48.812;11.762;2023-06-01T04:58:34;7.80;;;3.65;;
22160;SDS011;49035;48.812;11.762;2023-06-01T05:00:59;8.93;;;4.72;;
22160;SDS011;49035;48.812;11.762;2023-06-01T05:03:25;5.95;;;3.50;;
22160;SDS011;49035;48.812;11.762;2023-06-01T05:05:50;8.52;;;4.25;;
22160;SDS011;49035;48.812;11.762;2023-06-01T05:08:16;7.70;;;4.30;;
22160;SDS011;49035;48.812;11.762;2023-06-01T05:10:41;7.00;;;4.45;;
22160;SDS011;49035;48.812;11.762;2023-06-01T05:13:07;6.38;;;4.55;;
22160;SDS011;49035;48.812;11.762;2023-06-01T05:15:32;6.78;;;4.47;;
22160;SDS011;49035;48.812;11.762;2023-06-01T05:17:58;7.00;;;3.70;;
22160;SDS011;49035;48.812;11.762;2023-06-01T05:20:24;8.23;;;3.40;;
22160;SDS011;49035;48.812;11.762;2023-06-01T05:22:49;9.25;;;3.83;;
22160;SDS011;49035;48.812;11.762;2023-06-01T05:25:15;6.07;;;3.58;;
22160;SDS011;49035;48.812;11.762;2023-06-01T05:27:41;6.60;;;3.47;;
22160;SDS011;49035;48.812;11.762;2023-06-01T05:30:07;4.85;;;3.42;;
22160;SDS011;49035;48.812;11.762;2023-06-01T05:32:33;5.43;;;3.40;;
22160;SDS011;49035;48.812;11.762;2023-06-01T05:34:58;5.53;;;3.70;;
22160;SDS011;49035;48.812;11.762;2023-06-01T05:37:24;10.35;;;3.85;;
22160;SDS011;49035;48.812;11.762;2023-06-01T05:39:50;6.30;;;3.47;;
22160;SDS011;49035;48.812;11.762;2023-06-01T05:42:15;10.32;;;3.97;;
22160;SDS011;49035;48.812;11.762;2023-06-01T05:44:41;10.70;;;4.15;;
22160;SDS011;49035;48.812;11.762;2023-06-01T05:47:06;6.80;;;3.58;;
22160;SDS011;49035;48.812;11.762;2023-06-01T05:49:33;7.25;;;3.90;;
22160;SDS011;49035;48.812;11.762;2023-06-01T05:52:00;6.25;;;2.97;;
22160;SDS011;49035;48.812;11.762;2023-06-01T05:54:26;5.07;;;3.45;;
22160;SDS011;49035;48.812;11.762;2023-06-01T05:56:51;7.03;;;3.92;;
22160;SDS011;49035;48.812;11.762;2023-06-01T05:59:17;7.22;;;3.15;;
22160;SDS011;49035;48.812;11.762;2023-06-01T06:01:42;8.98;;;4.03;;
22160;SDS011;49035;48.812;11.762;2023-06-01T06:04:09;4.50;;;3.25;;
22160;SDS011;49035;48.812;11.762;2023-06-01T06:06:35;5.75;;;3.30;;
22160;SDS011;49035;48.812;11.762;2023-06-01T06:09:01;7.38;;;3.05;;
22160;SDS011;49035;48.812;11.762;2023-06-01T06:11:27;6.38;;;3.15;;
22160;SDS011;49035;48.812;11.762;2023-06-01T06:13:53;4.43;;;3.30;;
22160;SDS011;49035;48.812;11.762;2023-06-01T06:16:18;7.03;;;3.15;;
22160;SDS011;49035;48.812;11.762;2023-06-01T06:18:44;6.32;;;2.88;;
22160;SDS011;49035;48.812;11.762;2023-06-01T06:21:10;11.70;;;3.28;;
22160;SDS011;49035;48.812;11.762;2023-06-01T06:23:35;6.57;;;2.78;;
22160;SDS011;49035;48.812;11.762;2023-06-01T06:26:02;10.00;;;2.92;;
22160;SDS011;49035;48.812;11.762;2023-06-01T06:28:27;14.95;;;4.20;;
22160;SDS011;49035;48.812;11.762;2023-06-01T06:30:53;8.15;;;3.25;;
22160;SDS011;49035;48.812;11.762;2023-06-01T06:33:19;6.82;;;3.30;;
22160;SDS011;49035;48.812;11.762;2023-06-01T06:35:45;9.75;;;3.00;;
22160;SDS011;49035;48.812;11.762;2023-06-01T06:38:11;5.10;;;2.78;;
22160;SDS011;49035;48.812;11.762;2023-06-01T06:40:38;4.45;;;2.75;;
22160;SDS011;49035;48.812;11.762;2023-06-01T06:43:03;5.40;;;2.65;;
22160;SDS011;49035;48.812;11.762;2023-06-01T06:45:29;11.93;;;3.08;;
22160;SDS011;49035;48.812;11.762;2023-06-01T06:47:54;9.43;;;3.20;;
22160;SDS011;49035;48.812;11.762;2023-06-01T06:50:20;6.95;;;2.78;;
22160;SDS011;49035;48.812;11.762;2023-06-01T06:52:46;4.93;;;2.97;;
22160;SDS011;49035;48.812;11.762;2023-06-01T06:55:11;6.05;;;2.50;;
22160;SDS011;49035;48.812;11.762;2023-06-01T06:57:37;4.60;;;2.42;;
22160;SDS011;49035;48.812;11.762;2023-06-01T07:00:05;5.82;;;2.70;;
22160;SDS011;49035;48.812;11.762;2023-06-01T07:02:32;4.68;;;2.60;;
22160;SDS011;49035;48.812;11.762;2023-06-01T07:04:58;6.65;;;3.00;;
22160;SDS011;49035;48.812;11.762;2023-06-01T07:07:23;5.47;;;3.00;;
22160;SDS011;49035;48.812;11.762;2023-06-01T07:09:49;7.75;;;2.60;;
22160;SDS011;49035;48.812;11.762;2023-06-01T07:12:14;4.55;;;2.25;;
22160;SDS011;49035;48.812;11.762;2023-06-01T07:14:40;7.47;;;2.85;;
22160;SDS011;49035;48.812;11.762;2023-06-01T07:17:06;5.72;;;2.42;;
22160;SDS011;49035;48.812;11.762;2023-06-01T07:19:31;7.50;;;3.10;;
22160;SDS011;49035;48.812;11.762;2023-06-01T07:22:00;3.58;;;2.60;;
22160;SDS011;49035;48.812;11.762;2023-06-01T07:24:26;5.38;;;2.25;;
22160;SDS011;49035;48.812;11.762;2023-06-01T07:26:52;7.97;;;2.72;;
22160;SDS011;49035;48.812;11.762;2023-06-01T07:29:18;7.65;;;3.10;;
22160;SDS011;49035;48.812;11.762;2023-06-01T07:31:46;8.32;;;2.42;;
22160;SDS011;49035;48.812;11.762;2023-06-01T07:34:11;5.20;;;2.35;;
22160;SDS011;49035;48.812;11.762;2023-06-01T07:36:37;4.97;;;2.25;;
22160;SDS011;49035;48.812;11.762;2023-06-01T07:39:03;6.13;;;1.95;;
22160;SDS011;49035;48.812;11.762;2023-06-01T07:41:33;5.22;;;2.15;;
22160;SDS011;49035;48.812;11.762;2023-06-01T07:43:59;2.95;;;2.20;;
22160;SDS011;49035;48.812;11.762;2023-06-01T07:46:25;4.88;;;2.28;;
22160;SDS011;49035;48.812;11.762;2023-06-01T07:48:50;3.20;;;2.03;;
22160;SDS011;49035;48.812;11.762;2023-06-01T07:51:16;12.23;;;2.58;;
22160;SDS011;49035;48.812;11.762;2023-06-01T07:53:42;5.10;;;2.35;;
22160;SDS011;49035;48.812;11.762;2023-06-01T07:56:08;6.68;;;2.40;;
22160;SDS011;49035;48.812;11.762;2023-06-01T07:58:34;7.43;;;2.38;;
22160;SDS011;49035;48.812;11.762;2023-06-01T08:00:59;5.63;;;2.10;;
22160;SDS011;49035;48.812;11.762;2023-06-01T08:03:25;7.10;;;2.38;;
22160;SDS011;49035;48.812;11.762;2023-06-01T08:05:51;5.10;;;2.50;;
22160;SDS011;49035;48.812;11.762;2023-06-01T08:08:23;4.53;;;2.53;;
22160;SDS011;49035;48.812;11.762;2023-06-01T08:10:49;8.43;;;2.00;;
22160;SDS011;49035;48.812;11.762;2023-06-01T08:13:15;8.32;;;2.70;;
22160;SDS011;49035;48.812;11.762;2023-06-01T08:15:41;4.55;;;2.83;;
22160;SDS011;49035;48.812;11.762;2023-06-01T08:18:08;5.70;;;2.60;;
22160;SDS011;49035;48.812;11.762;2023-06-01T08:20:33;8.68;;;2.72;;
22160;SDS011;49035;48.812;11.762;2023-06-01T08:23:00;4.75;;;2.50;;
22160;SDS011;49035;48.812;11.762;2023-06-01T08:25:27;7.70;;;2.50;;
22160;SDS011;49035;48.812;11.762;2023-06-01T08:27:53;4.55;;;2.33;;
22160;SDS011;49035;48.812;11.762;2023-06-01T08:30:19;6.43;;;2.58;;
22160;SDS011;49035;48.812;11.762;2023-06-01T08:32:44;6.55;;;2.53;;
22160;SDS011;49035;48.812;11.762;2023-06-01T08:35:10;5.47;;;2.60;;
22160;SDS011;49035;48.812;11.762;2023-06-01T08:37:36;7.32;;;3.30;;
22160;SDS011;49035;48.812;11.762;2023-06-01T08:40:02;7.85;;;3.15;;
22160;SDS011;49035;48.812;11.762;2023-06-01T08:45:15;4.55;;;3.10;;
22160;SDS011;49035;48.812;11.762;2023-06-01T08:47:43;7.35;;;3.50;;
22160;SDS011;49035;48.812;11.762;2023-06-01T08:50:11;4.03;;;2.80;;
22160;SDS011;49035;48.812;11.762;2023-06-01T08:52:38;5.53;;;3.20;;
22160;SDS011;49035;48.812;11.762;2023-06-01T08:55:06;5.45;;;3.45;;
22160;SDS011;49035;48.812;11.762;2023-06-01T08:57:32;7.38;;;3.53;;
22160;SDS011;49035;48.812;11.762;2023-06-01T08:59:58;7.43;;;3.45;;
22160;SDS011;49035;48.812;11.762;2023-06-01T09:02:25;9.45;;;3.38;;
22160;SDS011;49035;48.812;11.762;2023-06-01T09:04:52;5.70;;;3.22;;
22160;SDS011;49035;48.812;11.762;2023-06-01T09:07:17;6.53;;;3.38;;
22160;SDS011;49035;48.812;11.762;2023-06-01T09:09:43;4.40;;;3.00;;
22160;SDS011;49035;48.812;11.762;2023-06-01T09:12:20;11.35;;;3.33;;
22160;SDS011;49035;48.812;11.762;2023-06-01T09:14:51;5.80;;;3.25;;
22160;SDS011;49035;48.812;11.762;2023-06-01T09:17:36;4.38;;;2.83;;
22160;SDS011;49035;48.812;11.762;2023-06-01T09:20:03;7.55;;;3.30;;
22160;SDS011;49035;48.812;11.762;2023-06-01T09:22:43;7.68;;;3.40;;
22160;SDS011;49035;48.812;11.762;2023-06-01T09:25:10;8.25;;;3.08;;
22160;SDS011;49035;48.812;11.762;2023-06-01T09:27:46;4.80;;;2.80;;
22160;SDS011;49035;48.812;11.762;2023-06-01T09:30:14;6.00;;;3.10;;
22160;SDS011;49035;48.812;11.762;2023-06-01T09:32:40;3.92;;;2.67;;
22160;SDS011;49035;48.812;11.762;2023-06-01T09:35:06;4.75;;;2.97;;
22160;SDS011;49035;48.812;11.762;2023-06-01T09:37:33;5.43;;;3.10;;
22160;SDS011;49035;48.812;11.762;2023-06-01T09:39:59;4.57;;;2.97;;
22160;SDS011;49035;48.812;11.762;2023-06-01T09:42:34;4.82;;;2.80;;
22160;SDS011;49035;48.812;11.762;2023-06-01T09:45:18;10.77;;;3.30;;
22160;SDS011;49035;48.812;11.762;2023-06-01T09:47:48;5.65;;;3.20;;
22160;SDS011;49035;48.812;11.762;2023-06-01T09:53:00;6.38;;;3.13;;
22160;SDS011;49035;48.812;11.762;2023-06-01T09:55:25;4.88;;;3.35;;
22160;SDS011;49035;48.812;11.762;2023-06-01T09:57:51;7.18;;;3.13;;
22160;SDS011;49035;48.812;11.762;2023-06-01T10:00:23;6.47;;;3.33;;
22160;SDS011;49035;48.812;11.762;2023-06-01T10:02:50;5.95;;;3.13;;
22160;SDS011;49035;48.812;11.762;2023-06-01T10:05:17;5.40;;;3.20;;
22160;SDS011;49035;48.812;11.762;2023-06-01T10:07:43;5.53;;;3.33;;
22160;SDS011;49035;48.812;11.762;2023-06-01T10:10:12;7.43;;;3.08;;
22160;SDS011;49035;48.812;11.762;2023-06-01T10:12:39;6.55;;;3.25;;
22160;SDS011;49035;48.812;11.762;2023-06-01T10:15:05;6.78;;;3.28;;
22160;SDS011;49035;48.812;11.762;2023-06-01T10:17:32;7.30;;;2.72;;
22160;SDS011;49035;48.812;11.762;2023-06-01T10:19:59;6.38;;;3.22;;
22160;SDS011;49035;48.812;11.762;2023-06-01T10:22:27;5.80;;;2.88;;
22160;SDS011;49035;48.812;11.762;2023-06-01T10:24:57;6.78;;;3.17;;
22160;SDS011;49035;48.812;11.762;2023-06-01T10:27:33;7.10;;;3.33;;
22160;SDS011;49035;48.812;11.762;2023-06-01T10:30:06;3.65;;;3.00;;
22160;SDS011;49035;48.812;11.762;2023-06-01T10:35:03;8.10;;;3.10;;
22160;SDS011;49035;48.812;11.762;2023-06-01T10:37:30;5.00;;;3.15;;
22160;SDS011;49035;48.812;11.762;2023-06-01T10:42:47;6.57;;;2.97;;
22160;SDS011;49035;48.812;11.762;2023-06-01T10:48:02;5.95;;;3.13;;
22160;SDS011;49035;48.812;11.762;2023-06-01T10:50:29;6.18;;;2.78;;
22160;SDS011;49035;48.812;11.762;2023-06-01T10:52:56;4.50;;;3.20;;
22160;SDS011;49035;48.812;11.762;2023-06-01T10:55:41;4.03;;;2.67;;
22160;SDS011;49035;48.812;11.762;2023-06-01T10:58:19;6.80;;;3.67;;
22160;SDS011;49035;48.812;11.762;2023-06-01T11:00:49;6.97;;;2.92;;
22160;SDS011;49035;48.812;11.762;2023-06-01T11:03:16;4.85;;;3.25;;
22160;SDS011;49035;48.812;11.762;2023-06-01T11:06:22;6.88;;;3.10;;
22160;SDS011;49035;48.812;11.762;2023-06-01T11:08:55;8.48;;;2.97;;
22160;SDS011;49035;48.812;11.762;2023-06-01T11:11:22;6.95;;;3.33;;
22160;SDS011;49035;48.812;11.762;2023-06-01T11:14:04;5.28;;;3.47;;
22160;SDS011;49035;48.812;11.762;2023-06-01T11:16:33;4.00;;;3.10;;
22160;SDS011;49035;48.812;11.762;2023-06-01T11:18:59;5.95;;;2.92;;
22160;SDS011;49035;48.812;11.762;2023-06-01T11:24:51;4.18;;;2.80;;
22160;SDS011;49035;48.812;11.762;2023-06-01T11:27:29;4.82;;;3.05;;
22160;SDS011;49035;48.812;11.762;2023-06-01T11:29:55;5.55;;;2.90;;
22160;SDS011;49035;48.812;11.762;2023-06-01T11:32:22;6.72;;;2.95;;
22160;SDS011;49035;48.812;11.762;2023-06-01T11:34:48;3.60;;;2.63;;
22160;SDS011;49035;48.812;11.762;2023-06-01T11:37:17;4.15;;;2.67;;
22160;SDS011;49035;48.812;11.762;2023-06-01T11:39:44;5.07;;;2.60;;
22160;SDS011;49035;48.812;11.762;2023-06-01T11:42:12;7.47;;;3.00;;
22160;SDS011;49035;48.812;11.762;2023-06-01T11:44:39;6.68;;;3.13;;
22160;SDS011;49035;48.812;11.762;2023-06-01T11:47:06;5.93;;;2.53;;
22160;SDS011;49035;48.812;11.762;2023-06-01T11:49:46;7.72;;;3.30;;
22160;SDS011;49035;48.812;11.762;2023-06-01T11:52:13;4.07;;;2.67;;
22160;SDS011;49035;48.812;11.762;2023-06-01T11:54:39;3.83;;;2.75;;
22160;SDS011;49035;48.812;11.762;2023-06-01T11:57:05;7.70;;;2.75;;
22160;SDS011;49035;48.812;11.762;2023-06-01T11:59:39;5.00;;;3.10;;
22160;SDS011;49035;48.812;11.762;2023-06-01T12:02:18;8.70;;;3.42;;
22160;SDS011;49035;48.812;11.762;2023-06-01T12:05:01;4.93;;;2.83;;
22160;SDS011;49035;48.812;11.762;2023-06-01T12:07:48;3.63;;;2.97;;
22160;SDS011;49035;48.812;11.762;2023-06-01T12:10:16;4.03;;;2.90;;
22160;SDS011;49035;48.812;11.762;2023-06-01T12:12:44;6.13;;;2.78;;
22160;SDS011;49035;48.812;11.762;2023-06-01T12:15:14;4.15;;;2.80;;
22160;SDS011;49035;48.812;11.762;2023-06-01T12:17:47;4.07;;;2.85;;
22160;SDS011;49035;48.812;11.762;2023-06-01T12:20:25;7.07;;;3.10;;
22160;SDS011;49035;48.812;11.762;2023-06-01T12:28:16;4.07;;;2.92;;
22160;SDS011;49035;48.812;11.762;2023-06-01T12:30:42;4.47;;;2.63;;
22160;SDS011;49035;48.812;11.762;2023-06-01T12:33:08;2.80;;;2.38;;
22160;SDS011;49035;48.812;11.762;2023-06-01T12:35:50;5.53;;;2.53;;
22160;SDS011;49035;48.812;11.762;2023-06-01T12:38:16;3.30;;;2.55;;
22160;SDS011;49035;48.812;11.762;2023-06-01T12:40:41;5.43;;;2.60;;
22160;SDS011;49035;48.812;11.762;2023-06-01T12:43:19;4.80;;;3.03;;
22160;SDS011;49035;48.812;11.762;2023-06-01T12:45:45;3.95;;;2.80;;
22160;SDS011;49035;48.812;11.762;2023-06-01T12:48:30;3.63;;;2.50;;
22160;SDS011;49035;48.812;11.762;2023-06-01T12:51:00;5.82;;;2.42;;
22160;SDS011;49035;48.812;11.762;2023-06-01T12:53:26;4.43;;;2.58;;
22160;SDS011;49035;48.812;11.762;2023-06-01T12:55:52;4.28;;;2.22;;
22160;SDS011;49035;48.812;11.762;2023-06-01T12:58:18;5.28;;;2.83;;
22160;SDS011;49035;48.812;11.762;2023-06-01T13:00:44;5.22;;;2.58;;
22160;SDS011;49035;48.812;11.762;2023-06-01T13:03:10;4.88;;;3.00;;
22160;SDS011;49035;48.812;11.762;2023-06-01T13:05:35;3.67;;;2.63;;
22160;SDS011;49035;48.812;11.762;2023-06-01T13:08:02;6.28;;;2.47;;
22160;SDS011;49035;48.812;11.762;2023-06-01T13:10:28;7.65;;;3.08;;
22160;SDS011;49035;48.812;11.762;2023-06-01T13:12:54;4.72;;;2.80;;
22160;SDS011;49035;48.812;11.762;2023-06-01T13:15:23;3.72;;;2.50;;
22160;SDS011;49035;48.812;11.762;2023-06-01T13:17:50;3.83;;;2.75;;
22160;SDS011;49035;48.812;11.762;2023-06-01T13:20:16;5.50;;;2.47;;
22160;SDS011;49035;48.812;11.762;2023-06-01T13:22:44;4.10;;;2.63;;
22160;SDS011;49035;48.812;11.762;2023-06-01T13:25:10;12.35;;;2.80;;
22160;SDS011;49035;48.812;11.762;2023-06-01T13:27:36;4.28;;;2.70;;
22160;SDS011;49035;48.812;11.762;2023-06-01T13:30:02;8.00;;;2.75;;
22160;SDS011;49035;48.812;11.762;2023-06-01T13:32:32;4.85;;;2.90;;
22160;SDS011;49035;48.812;11.762;2023-06-01T13:34:58;6.93;;;2.38;;
22160;SDS011;49035;48.812;11.762;2023-06-01T13:37:23;3.30;;;2.67;;
22160;SDS011;49035;48.812;11.762;2023-06-01T13:39:49;4.88;;;2.40;;
22160;SDS011;49035;48.812;11.762;2023-06-01T13:42:18;5.32;;;2.30;;
22160;SDS011;49035;48.812;11.762;2023-06-01T13:44:44;6.25;;;2.42;;
22160;SDS011;49035;48.812;11.762;2023-06-01T13:47:12;5.10;;;2.67;;
22160;SDS011;49035;48.812;11.762;2023-06-01T13:49:40;3.88;;;2.10;;
22160;SDS011;49035;48.812;11.762;2023-06-01T13:52:07;4.10;;;2.17;;
22160;SDS011;49035;48.812;11.762;2023-06-01T13:54:33;4.22;;;2.67;;
22160;SDS011;49035;48.812;11.762;2023-06-01T13:56:59;5.53;;;2.83;;
22160;SDS011;49035;48.812;11.762;2023-06-01T13:59:25;5.18;;;2.67;;
22160;SDS011;49035;48.812;11.762;2023-06-01T14:01:51;2.63;;;2.15;;
22160;SDS011;49035;48.812;11.762;2023-06-01T14:04:17;6.07;;;2.45;;
22160;SDS011;49035;48.812;11.762;2023-06-01T14:06:43;2.90;;;2.30;;
22160;SDS011;49035;48.812;11.762;2023-06-01T14:09:09;3.95;;;2.40;;
22160;SDS011;49035;48.812;11.762;2023-06-01T14:11:35;3.88;;;2.28;;
22160;SDS011;49035;48.812;11.762;2023-06-01T14:14:01;3.78;;;2.53;;
22160;SDS011;49035;48.812;11.762;2023-06-01T14:16:26;9.10;;;5.13;;
22160;SDS011;49035;48.812;11.762;2023-06-01T14:18:52;5.07;;;2.58;;
22160;SDS011;49035;48.812;11.762;2023-06-01T14:21:18;7.97;;;2.30;;
22160;SDS011;49035;48.812;11.762;2023-06-01T14:23:43;6.38;;;2.78;;
22160;SDS011;49035;48.812;11.762;2023-06-01T14:26:09;4.10;;;2.20;;
22160;SDS011;49035;48.812;11.762;2023-06-01T14:28:35;2.22;;;1.88;;
22160;SDS011;49035;48.812;11.762;2023-06-01T14:31:01;2.95;;;2.30;;
22160;SDS011;49035;48.812;11.762;2023-06-01T14:33:26;5.38;;;2.67;;
22160;SDS011;49035;48.812;11.762;2023-06-01T14:35:52;5.35;;;2.45;;
22160;SDS011;49035;48.812;11.762;2023-06-01T14:38:18;3.70;;;2.20;;
22160;SDS011;49035;48.812;11.762;2023-06-01T14:40:44;4.60;;;1.73;;
22160;SDS011;49035;48.812;11.762;2023-06-01T14:43:10;7.43;;;2.20;;
22160;SDS011;49035;48.812;11.762;2023-06-01T14:45:35;4.57;;;2.33;;
22160;SDS011;49035;48.812;11.762;2023-06-01T14:48:01;2.75;;;1.60;;
22160;SDS011;49035;48.812;11.762;2023-06-01T14:50:26;4.47;;;2.28;;
22160;SDS011;49035;48.812;11.762;2023-06-01T14:52:52;4.03;;;1.80;;
22160;SDS011;49035;48.812;11.762;2023-06-01T14:55:24;3.15;;;2.05;;
22160;SDS011;49035;48.812;11.762;2023-06-01T14:57:49;2.75;;;1.77;;
22160;SDS011;49035;48.812;11.762;2023-06-01T15:00:15;4.35;;;1.80;;
22160;SDS011;49035;48.812;11.762;2023-06-01T15:02:41;2.75;;;1.98;;
22160;SDS011;49035;48.812;11.762;2023-06-01T15:05:07;5.18;;;1.92;;